Time;durP1;ratioP1;P1;durP2;ratioP2;P2;SDS_P1;SDS_P2;PMS_P1;PMS_P2;Temp;Humidity;BMP_temperature;BMP_pressure;BME280_temperature;BME280_humidity;BME280_pressure;Samples;Min_cycle;Max_cycle;Signal;HPM_P1;HPM_P2
2021/11/06 00:00:20;;;;;;;29.53;19.23;;;;;;;8.00;69.66;97808.88;5076501;28;20466;-65
2021/11/06 00:02:46;;;;;;;24.43;17.23;;;;;;;7.96;69.29;97812.66;5092896;28;20408;-66
2021/11/06 00:05:12;;;;;;;25.07;16.83;;;;;;;8.00;69.81;97811.47;5085467;28;20440;-66
2021/11/06 00:07:38;;;;;;;24.83;16.47;;;;;;;7.82;69.44;97806.75;5086952;28;20455;-65
2021/11/06 00:10:08;;;;;;;23.90;17.77;;;;;;;7.91;68.84;97812.22;5092499;28;20412;-66
2021/11/06 00:12:34;;;;;;;30.37;17.93;;;;;;;8.02;69.11;97806.97;5092617;28;20285;-65
2021/11/06 00:15:00;;;;;;;24.30;17.70;;;;;;;8.05;69.49;97805.88;5080229;28;20435;-67
2021/11/06 00:17:26;;;;;;;31.63;18.27;;;;;;;7.67;69.27;97807.97;5063446;28;20457;-66
2021/11/06 00:19:52;;;;;;;26.93;17.77;;;;;;;7.86;69.56;97806.50;5063429;28;20182;-67
2021/11/06 00:22:17;;;;;;;24.77;16.80;;;;;;;7.74;68.74;97810.94;5066719;28;20421;-66
2021/11/06 00:24:43;;;;;;;22.27;16.20;;;;;;;7.76;68.58;97806.38;5062169;28;20184;-66
2021/11/06 00:27:08;;;;;;;29.27;15.93;;;;;;;7.77;67.96;97805.44;5064221;28;20297;-66
2021/11/06 00:29:34;;;;;;;26.80;17.30;;;;;;;7.62;68.53;97797.03;5063105;28;20206;-65
2021/11/06 00:32:00;;;;;;;24.63;16.80;;;;;;;7.49;68.44;97805.81;5064200;28;20306;-66
2021/11/06 00:34:25;;;;;;;26.90;16.50;;;;;;;7.40;68.90;97800.47;5067524;28;20254;-66
2021/11/06 00:36:51;;;;;;;30.10;15.80;;;;;;;7.51;68.22;97797.84;5065408;28;20206;-66
2021/11/06 00:39:16;;;;;;;23.43;15.63;;;;;;;7.51;68.15;97803.91;5064673;28;20212;-66
2021/11/06 00:41:42;;;;;;;29.37;16.33;;;;;;;7.46;67.72;97808.66;5077922;28;20239;-68
2021/11/06 00:44:08;;;;;;;21.10;14.90;;;;;;;7.48;67.95;97798.13;5089367;28;20177;-66
2021/11/06 00:46:33;;;;;;;21.83;15.03;;;;;;;7.39;68.54;97802.25;5078397;28;20664;-66
2021/11/06 00:48:59;;;;;;;20.90;15.20;;;;;;;7.46;68.20;97807.84;5080721;28;20264;-67
2021/11/06 00:51:25;;;;;;;28.37;15.50;;;;;;;7.47;68.01;97802.50;5087129;28;20174;-67
2021/11/06 00:53:51;;;;;;;21.47;14.30;;;;;;;7.49;67.69;97805.81;5072239;28;20512;-66
2021/11/06 00:56:17;;;;;;;25.67;15.43;;;;;;;7.48;67.41;97803.34;5091762;28;20194;-67
2021/11/06 00:58:42;;;;;;;22.57;14.70;;;;;;;7.50;67.94;97806.63;5091869;28;20211;-67
2021/11/06 01:01:08;;;;;;;21.27;14.43;;;;;;;7.48;67.48;97814.59;5092912;28;20479;-68
2021/11/06 01:03:34;;;;;;;21.97;14.10;;;;;;;7.51;67.06;97811.75;5091725;28;20215;-68
2021/11/06 01:06:00;;;;;;;22.10;14.90;;;;;;;7.48;67.18;97817.19;5092137;28;20443;-66
2021/11/06 01:08:25;;;;;;;20.27;14.90;;;;;;;7.45;67.63;97819.22;5078633;28;20196;-66
2021/11/06 01:10:51;;;;;;;21.87;14.93;;;;;;;7.45;67.33;97827.84;5091718;28;20181;-66
2021/11/06 01:13:18;;;;;;;22.13;15.73;;;;;;;7.29;66.56;97824.78;5091832;28;20173;-66
2021/11/06 01:15:44;;;;;;;24.17;15.60;;;;;;;7.26;67.21;97822.38;5091426;28;20185;-66
2021/11/06 01:18:09;;;;;;;18.10;13.70;;;;;;;7.31;67.35;97822.88;5080276;28;20542;-66
2021/11/06 01:20:35;;;;;;;19.57;13.53;;;;;;;7.29;66.50;97817.75;5089970;28;20182;-66
2021/11/06 01:23:01;;;;;;;24.27;15.57;;;;;;;7.23;66.63;97823.47;5086024;28;20185;-67
2021/11/06 01:25:26;;;;;;;17.80;13.30;;;;;;;7.25;66.62;97815.50;5095647;28;20509;-66
2021/11/06 01:27:52;;;;;;;22.13;15.30;;;;;;;7.22;66.56;97819.19;5084731;28;20199;-66
2021/11/06 01:30:18;;;;;;;18.67;13.70;;;;;;;7.19;66.73;97825.44;5095063;28;20257;-66
2021/11/06 01:32:45;;;;;;;19.30;14.00;;;;;;;7.11;66.88;97827.81;5095520;28;20736;-65
2021/11/06 01:35:12;;;;;;;20.77;14.53;;;;;;;7.07;66.69;97828.97;5096779;28;20235;-67
2021/11/06 01:37:38;;;;;;;22.50;14.50;;;;;;;6.93;66.93;97814.38;5090980;28;20459;-67
2021/11/06 01:40:06;;;;;;;19.93;13.70;;;;;;;6.52;67.69;97820.84;5096246;28;20453;-66
2021/11/06 01:42:32;;;;;;;23.17;14.77;;;;;;;6.64;67.43;97826.97;5086785;28;20206;-68
2021/11/06 01:44:58;;;;;;;20.20;14.10;;;;;;;6.63;67.22;97823.50;5096116;28;20509;-65
2021/11/06 01:47:24;;;;;;;23.93;14.90;;;;;;;6.59;67.59;97822.91;5090546;28;20230;-65
2021/11/06 01:49:50;;;;;;;21.67;14.30;;;;;;;6.49;67.73;97821.91;5088730;28;20424;-66
2021/11/06 01:52:15;;;;;;;22.13;13.77;;;;;;;6.50;67.78;97817.53;5094979;28;20181;-66
2021/11/06 01:54:41;;;;;;;21.87;14.67;;;;;;;6.65;67.58;97811.19;5076714;28;20660;-64
2021/11/06 01:57:06;;;;;;;18.80;14.20;;;;;;;6.73;66.86;97810.66;5091971;28;20248;-64
2021/11/06 01:59:32;;;;;;;20.30;14.10;;;;;;;6.40;67.71;97809.56;5089021;28;20182;-66
2021/11/06 02:01:58;;;;;;;22.50;13.73;;;;;;;6.30;68.11;97807.59;5094445;28;20239;-65
2021/11/06 02:04:24;;;;;;;20.03;14.40;;;;;;;6.28;68.06;97804.31;5091232;28;20588;-66
2021/11/06 02:06:50;;;;;;;22.07;14.43;;;;;;;6.37;67.92;97801.97;5094010;28;20256;-66
2021/11/06 02:09:16;;;;;;;26.40;14.33;;;;;;;6.28;67.71;97801.72;5090429;28;20460;-65
2021/11/06 02:11:42;;;;;;;18.83;13.27;;;;;;;6.20;68.21;97800.59;5088670;28;20810;-66
2021/11/06 02:14:07;;;;;;;20.63;13.47;;;;;;;6.23;68.19;97800.38;5093711;28;20433;-64
2021/11/06 02:16:33;;;;;;;19.80;13.63;;;;;;;6.19;68.65;97794.53;5087521;28;20201;-66
2021/11/06 02:18:59;;;;;;;21.37;14.40;;;;;;;6.21;68.83;97795.25;5077460;28;20632;-64
2021/11/06 02:21:25;;;;;;;30.13;13.93;;;;;;;6.33;68.16;97790.09;5083502;28;20179;-65
2021/11/06 02:23:51;;;;;;;22.10;14.23;;;;;;;6.35;67.98;97796.88;5080204;28;20452;-65
2021/11/06 02:26:18;;;;;;;21.67;13.83;;;;;;;6.11;69.00;97794.25;5076768;28;20570;-65
2021/11/06 02:28:47;;;;;;;19.33;13.87;;;;;;;6.08;68.50;97792.72;5081726;28;20424;-65
2021/11/06 02:31:13;;;;;;;19.67;13.93;;;;;;;5.95;68.82;97802.31;5072907;28;20428;-65
2021/11/06 02:33:38;;;;;;;21.17;13.47;;;;;;;5.93;69.08;97810.19;5073746;28;20547;-65
2021/11/06 02:36:04;;;;;;;22.97;13.90;;;;;;;5.95;68.88;97795.31;5072604;28;20456;-65
2021/11/06 02:38:30;;;;;;;23.07;15.10;;;;;;;5.81;69.49;97813.66;5073266;28;20195;-66
2021/11/06 02:40:56;;;;;;;20.60;13.77;;;;;;;5.65;70.21;97801.75;5079805;28;20181;-66
2021/11/06 02:43:21;;;;;;;20.20;13.80;;;;;;;5.68;70.46;97798.91;5073675;28;20225;-66
2021/11/06 02:45:47;;;;;;;20.23;14.20;;;;;;;5.88;69.58;97795.84;5073395;28;20429;-65
2021/11/06 02:48:13;;;;;;;22.27;14.70;;;;;;;5.86;69.60;97787.34;5072971;28;20250;-64
2021/11/06 02:50:38;;;;;;;23.10;14.70;;;;;;;5.89;69.36;97785.38;5073154;28;20186;-65
2021/11/06 02:53:04;;;;;;;23.73;16.70;;;;;;;5.81;69.64;97785.91;5081720;28;20193;-65
2021/11/06 02:55:31;;;;;;;25.93;17.60;;;;;;;5.68;70.43;97791.13;5072748;28;20182;-64
2021/11/06 02:57:56;;;;;;;27.67;18.10;;;;;;;5.92;70.18;97782.53;5056416;28;20459;-64
2021/11/06 03:00:23;;;;;;;23.60;16.30;;;;;;;6.11;69.64;97787.28;5074063;28;20843;-64
2021/11/06 03:02:48;;;;;;;29.40;16.03;;;;;;;6.07;69.86;97800.63;5062120;28;20195;-63
2021/11/06 03:05:15;;;;;;;25.57;15.90;;;;;;;6.08;69.63;97802.28;5073330;28;20935;-64
2021/11/06 03:07:41;;;;;;;24.43;15.40;;;;;;;6.17;69.45;97800.81;5071656;28;20284;-64
2021/11/06 03:10:09;;;;;;;20.50;14.43;;;;;;;6.24;68.86;97800.25;5065091;28;20928;-64
2021/11/06 03:12:35;;;;;;;23.43;15.07;;;;;;;6.23;68.63;97805.59;5068192;28;20426;-64
2021/11/06 03:15:01;;;;;;;26.10;13.90;;;;;;;6.25;68.35;97804.53;5079617;28;20413;-65
2021/11/06 03:17:26;;;;;;;17.63;12.03;;;;;;;6.25;68.26;97804.53;5074028;28;20849;-66
2021/11/06 03:19:52;;;;;;;23.20;14.17;;;;;;;6.24;67.71;97813.28;5073749;28;20688;-65
2021/11/06 03:22:17;;;;;;;21.13;13.67;;;;;;;6.25;67.99;97809.72;5079089;28;20206;-66
2021/11/06 03:24:43;;;;;;;18.73;12.60;;;;;;;6.22;67.71;97809.94;5069566;28;20201;-66
2021/11/06 03:27:08;;;;;;;19.43;12.87;;;;;;;6.25;67.66;97817.53;5087733;28;20206;-64
2021/11/06 03:29:34;;;;;;;21.20;14.73;;;;;;;6.19;68.47;97810.16;5088259;28;20170;-65
2021/11/06 03:32:00;;;;;;;22.60;14.87;;;;;;;6.21;68.60;97812.66;5086933;28;20185;-65
2021/11/06 03:34:26;;;;;;;23.13;16.13;;;;;;;6.25;68.12;97821.91;5073714;28;20417;-66
2021/11/06 03:36:52;;;;;;;52.40;17.30;;;;;;;6.19;68.52;97815.38;5081085;28;20455;-65
2021/11/06 03:39:18;;;;;;;82.37;16.73;;;;;;;6.18;68.64;97816.31;5085230;28;20186;-65
2021/11/06 03:41:43;;;;;;;60.87;17.20;;;;;;;6.20;68.80;97809.22;5054753;28;20669;-66
2021/11/06 03:44:09;;;;;;;37.40;16.97;;;;;;;6.22;68.49;97806.53;5071853;28;20515;-65
2021/11/06 03:46:35;;;;;;;30.23;15.63;;;;;;;6.20;68.71;97809.22;5064841;28;20188;-65
2021/11/06 03:49:01;;;;;;;46.57;16.90;;;;;;;6.15;68.66;97813.94;5069904;28;20186;-65
2021/11/06 03:51:27;;;;;;;18.73;13.77;;;;;;;6.07;68.91;97822.28;5077560;28;20415;-65
2021/11/06 03:53:53;;;;;;;22.57;14.50;;;;;;;6.11;68.53;97815.91;5066596;28;20186;-65
2021/11/06 03:56:18;;;;;;;21.60;15.20;;;;;;;6.09;68.06;97824.78;5071494;28;20955;-64
2021/11/06 03:58:44;;;;;;;19.60;14.03;;;;;;;6.04;68.16;97825.09;5076412;28;20182;-64
2021/11/06 04:01:10;;;;;;;20.63;13.67;;;;;;;6.01;68.39;97832.31;5086669;28;20186;-65
2021/11/06 04:03:36;;;;;;;19.33;13.37;;;;;;;5.96;68.17;97828.22;5075692;28;20232;-65
2021/11/06 04:06:02;;;;;;;18.57;12.83;;;;;;;5.92;68.13;97831.97;5071343;28;20444;-64
2021/11/06 04:08:27;;;;;;;18.83;13.93;;;;;;;5.90;67.80;97836.47;5071680;28;20179;-65
2021/11/06 04:10:53;;;;;;;19.20;13.10;;;;;;;5.90;67.67;97835.63;5071840;28;20222;-65
2021/11/06 04:13:19;;;;;;;19.53;13.20;;;;;;;5.86;67.89;97834.19;5072173;28;20956;-65
2021/11/06 04:15:45;;;;;;;18.17;13.23;;;;;;;5.73;68.22;97834.19;5076294;28;20235;-64
2021/11/06 04:18:10;;;;;;;17.83;13.30;;;;;;;5.64;68.36;97830.44;5089417;28;20453;-66
2021/11/06 04:20:37;;;;;;;17.73;12.53;;;;;;;5.64;68.07;97836.50;5088867;28;20207;-65
2021/11/06 04:23:02;;;;;;;17.30;13.20;;;;;;;5.65;67.87;97827.75;5082862;28;20623;-67
2021/11/06 04:25:28;;;;;;;17.10;13.90;;;;;;;5.66;67.84;97828.59;5065013;28;20511;-66
2021/11/06 04:27:54;;;;;;;18.43;13.50;;;;;;;5.67;68.50;97830.25;5069607;28;20226;-66
2021/11/06 04:30:19;;;;;;;18.90;13.50;;;;;;;5.66;68.32;97832.03;5070143;28;20189;-65
2021/11/06 04:32:45;;;;;;;18.67;13.50;;;;;;;5.66;68.35;97834.63;5076704;28;20189;-66
2021/11/06 04:35:11;;;;;;;17.53;12.63;;;;;;;5.65;68.24;97840.75;5091775;28;20173;-65
2021/11/06 04:37:37;;;;;;;18.87;13.40;;;;;;;5.65;68.61;97835.56;5090807;28;20225;-65
2021/11/06 04:40:04;;;;;;;20.70;14.47;;;;;;;5.65;68.24;97835.56;5091667;28;20212;-65
2021/11/06 04:42:30;;;;;;;20.57;13.77;;;;;;;5.64;68.33;97838.25;5065473;28;20231;-66
2021/11/06 04:44:55;;;;;;;22.23;14.30;;;;;;;5.66;68.28;97834.63;5079047;28;21143;-65
2021/11/06 04:47:21;;;;;;;20.40;13.80;;;;;;;5.66;68.03;97834.63;5077242;28;20194;-65
2021/11/06 04:49:46;;;;;;;24.23;15.00;;;;;;;5.62;67.92;97842.72;5071875;28;20635;-65
2021/11/06 04:52:12;;;;;;;24.57;14.90;;;;;;;5.58;67.99;97831.72;5087919;28;20212;-65
2021/11/06 04:54:38;;;;;;;20.83;13.67;;;;;;;5.53;67.97;97832.03;5072741;28;20660;-66
2021/11/06 04:57:03;;;;;;;23.00;14.37;;;;;;;5.53;68.04;97831.22;5083861;28;20220;-66
2021/11/06 04:59:29;;;;;;;22.90;13.30;;;;;;;5.57;67.50;97832.66;5075220;28;20186;-66
2021/11/06 05:01:55;;;;;;;22.00;14.43;;;;;;;5.59;67.88;97828.16;5083170;28;20885;-67
2021/11/06 05:04:21;;;;;;;25.70;13.63;;;;;;;5.60;67.26;97829.84;5074964;28;20182;-66
2021/11/06 05:06:46;;;;;;;20.60;13.27;;;;;;;5.62;67.23;97829.72;5074402;28;20221;-66
2021/11/06 05:09:12;;;;;;;26.30;14.03;;;;;;;5.57;67.15;97832.66;5077563;28;20178;-66
2021/11/06 05:11:37;;;;;;;22.67;14.77;;;;;;;5.50;67.78;97839.22;5080327;28;20269;-66
2021/11/06 05:14:03;;;;;;;22.27;14.90;;;;;;;5.40;67.77;97843.38;5074093;28;20706;-66
2021/11/06 05:16:29;;;;;;;18.20;14.03;;;;;;;5.37;67.91;97842.66;5074412;28;20202;-66
2021/11/06 05:18:55;;;;;;;21.63;14.77;;;;;;;5.43;67.59;97845.75;5074591;28;20191;-66
2021/11/06 05:21:21;;;;;;;21.93;14.33;;;;;;;5.32;67.85;97847.31;5075108;28;20182;-67
2021/11/06 05:23:48;;;;;;;22.80;14.23;;;;;;;5.37;68.37;97847.00;5087074;28;20420;-66
2021/11/06 05:26:14;;;;;;;24.67;16.23;;;;;;;5.43;67.97;97835.34;5074969;28;20448;-67
2021/11/06 05:28:41;;;;;;;22.50;15.00;;;;;;;5.48;68.01;97846.28;5082854;28;20779;-66
2021/11/06 05:31:07;;;;;;;23.07;14.67;;;;;;;5.50;67.88;97847.00;5077519;28;20629;-66
2021/11/06 05:33:33;;;;;;;21.80;14.53;;;;;;;5.48;67.98;97849.69;5087339;28;20445;-66
2021/11/06 05:35:58;;;;;;;22.77;14.17;;;;;;;5.52;67.27;97843.38;5085051;28;20193;-66
2021/11/06 05:38:24;;;;;;;19.47;14.10;;;;;;;5.50;67.70;97850.44;5082940;28;20688;-65
2021/11/06 05:40:50;;;;;;;20.47;14.30;;;;;;;5.47;67.10;97844.63;5083958;28;20273;-65
2021/11/06 05:43:15;;;;;;;20.40;13.30;;;;;;;5.44;67.14;97847.41;5074847;28;20197;-66
2021/11/06 05:45:41;;;;;;;23.00;13.50;;;;;;;5.38;67.22;97851.25;5074725;28;20474;-66
2021/11/06 05:48:09;;;;;;;20.13;12.50;;;;;;;5.29;67.00;97852.75;5048167;28;20186;-66
2021/11/06 05:50:34;;;;;;;20.70;12.50;;;;;;;5.31;67.08;97847.44;5083438;28;20425;-66
2021/11/06 05:53:00;;;;;;;17.37;11.00;;;;;;;5.31;67.02;97845.66;5074251;28;20676;-66
2021/11/06 05:55:26;;;;;;;18.43;12.10;;;;;;;5.26;67.04;97845.13;5074780;28;20189;-67
2021/11/06 05:57:51;;;;;;;18.53;10.93;;;;;;;5.19;66.77;97851.66;5074218;28;20202;-67
2021/11/06 06:00:19;;;;;;;17.60;11.00;;;;;;;5.19;66.54;97841.28;5074597;28;20187;-67
2021/11/06 06:02:45;;;;;;;14.60;9.63;;;;;;;5.14;66.62;97849.38;5074773;28;20616;-67
2021/11/06 06:05:12;;;;;;;22.53;10.17;;;;;;;5.15;66.96;97852.81;5073288;28;20480;-66
2021/11/06 06:07:38;;;;;;;16.40;10.40;;;;;;;5.12;66.48;97853.84;5074079;28;20459;-66
2021/11/06 06:10:05;;;;;;;25.33;10.90;;;;;;;5.06;66.50;97849.88;5065756;28;20429;-67
2021/11/06 06:12:30;;;;;;;17.47;11.03;;;;;;;4.98;67.14;97859.16;5075826;28;20424;-68
2021/11/06 06:14:56;;;;;;;19.20;11.60;;;;;;;5.00;67.44;97852.06;5073861;28;20443;-67
2021/11/06 06:17:21;;;;;;;20.43;12.10;;;;;;;5.07;67.40;97858.53;5078019;28;20206;-67
2021/11/06 06:19:47;;;;;;;18.80;11.10;;;;;;;5.10;66.83;97863.53;5077551;28;20242;-67
2021/11/06 06:22:12;;;;;;;25.20;11.77;;;;;;;5.05;66.97;97858.59;5075265;28;20183;-66
2021/11/06 06:24:38;;;;;;;21.90;11.37;;;;;;;5.01;67.11;97859.78;5066823;28;20226;-67
2021/11/06 06:27:04;;;;;;;17.60;11.37;;;;;;;4.97;66.78;97860.91;5072133;28;20213;-67
2021/11/06 06:29:30;;;;;;;21.33;11.83;;;;;;;4.90;67.58;97870.03;5069802;28;20198;-67
2021/11/06 06:31:58;;;;;;;20.17;10.97;;;;;;;4.94;67.21;97875.84;5073021;28;20208;-67
2021/11/06 06:34:24;;;;;;;17.37;11.37;;;;;;;4.95;67.11;97880.94;5078286;28;21025;-66
2021/11/06 06:36:49;;;;;;;15.90;10.97;;;;;;;4.92;66.95;97879.38;5084444;28;20566;-67
2021/11/06 06:39:15;;;;;;;19.40;11.47;;;;;;;4.97;67.25;97883.47;5080172;28;20269;-67
2021/11/06 06:41:41;;;;;;;13.90;10.30;;;;;;;4.89;66.79;97884.78;5062958;28;20665;-66
2021/11/06 06:44:06;;;;;;;17.20;10.70;;;;;;;4.78;66.98;97889.00;5064842;28;20266;-65
2021/11/06 06:46:32;;;;;;;15.53;11.47;;;;;;;4.85;66.88;97896.28;5093566;28;20202;-65
2021/11/06 06:48:58;;;;;;;14.90;10.20;;;;;;;4.89;66.77;97891.75;5093138;28;20230;-67
2021/11/06 06:51:24;;;;;;;15.80;10.80;;;;;;;4.78;66.74;97894.22;5093042;28;20416;-69
2021/11/06 06:53:49;;;;;;;13.83;10.47;;;;;;;4.80;66.87;97892.31;5084726;28;20637;-68
2021/11/06 06:56:15;;;;;;;16.47;11.20;;;;;;;4.88;66.79;97903.88;5069989;28;20203;-68
2021/11/06 06:58:41;;;;;;;16.80;10.90;;;;;;;4.92;67.07;97899.31;5067659;28;20749;-68
2021/11/06 07:01:08;;;;;;;14.53;9.63;;;;;;;4.98;66.64;97904.13;5071654;28;20174;-69
2021/11/06 07:03:34;;;;;;;14.17;9.87;;;;;;;4.99;66.61;97904.94;5082945;28;20664;-69
2021/11/06 07:06:00;;;;;;;15.70;11.17;;;;;;;5.10;66.41;97914.66;5088543;28;20992;-68
2021/11/06 07:08:25;;;;;;;14.30;9.27;;;;;;;4.91;65.46;97908.06;5085025;28;20428;-67
2021/11/06 07:10:51;;;;;;;16.00;9.80;;;;;;;4.91;66.22;97908.06;5084627;28;20210;-67
2021/11/06 07:13:20;;;;;;;13.07;9.80;;;;;;;4.90;65.93;97909.81;5081090;28;20653;-67
2021/11/06 07:15:46;;;;;;;15.30;10.10;;;;;;;4.84;66.52;97910.22;5067241;28;20592;-66
2021/11/06 07:18:13;;;;;;;14.00;10.57;;;;;;;4.95;66.40;97914.72;5091478;28;20448;-68
2021/11/06 07:20:38;;;;;;;15.83;9.93;;;;;;;5.06;65.72;97914.84;5091423;28;20456;-67
2021/11/06 07:23:04;;;;;;;14.70;9.70;;;;;;;5.15;65.21;97915.19;5083686;28;20454;-68
2021/11/06 07:25:30;;;;;;;16.00;10.43;;;;;;;5.19;65.88;97914.03;5075693;28;20183;-68
2021/11/06 07:27:55;;;;;;;12.53;9.10;;;;;;;5.16;66.06;97912.50;5077447;28;20206;-67
2021/11/06 07:30:21;;;;;;;13.90;9.23;;;;;;;5.23;65.73;97910.31;5078402;28;20174;-67
2021/11/06 07:32:56;;;;;;;13.90;9.50;;;;;;;5.31;65.61;97915.81;5090442;28;20181;-69
2021/11/06 07:35:22;;;;;;;12.73;9.17;;;;;;;5.11;65.62;97916.31;5078033;28;20184;-69
2021/11/06 07:37:47;;;;;;;15.07;9.30;;;;;;;5.32;65.63;97912.28;5091945;28;20844;-67
2021/11/06 07:40:14;;;;;;;18.17;10.03;;;;;;;5.28;65.76;97920.41;5077352;28;20718;-69
2021/11/06 07:42:41;;;;;;;12.77;9.23;;;;;;;5.30;65.72;97926.34;5084250;28;20717;-68
2021/11/06 07:45:09;;;;;;;14.80;10.13;;;;;;;5.01;66.80;97922.13;5069346;28;20510;-70
2021/11/06 07:47:35;;;;;;;16.70;10.70;;;;;;;5.24;65.63;97930.19;5091922;28;20439;-67
2021/11/06 07:50:02;;;;;;;19.60;9.50;;;;;;;5.13;65.67;97930.88;5091384;28;20454;-68
2021/11/06 07:52:27;;;;;;;15.50;9.73;;;;;;;5.11;66.42;97926.72;5091903;28;20520;-67
2021/11/06 07:54:53;;;;;;;16.70;8.80;;;;;;;5.19;66.27;97925.28;5090503;28;20424;-67
2021/11/06 07:57:18;;;;;;;20.50;10.93;;;;;;;5.42;65.95;97929.91;5086503;28;20200;-67
2021/11/06 07:59:44;;;;;;;14.90;10.20;;;;;;;5.47;65.81;97933.88;5085155;28;20617;-68
2021/11/06 08:02:10;;;;;;;16.53;9.30;;;;;;;5.54;66.13;97942.91;5091719;28;20262;-68
2021/11/06 08:04:35;;;;;;;17.50;10.57;;;;;;;5.72;65.70;97936.56;5083383;28;20531;-68
2021/11/06 08:07:01;;;;;;;15.57;9.90;;;;;;;5.82;66.13;97951.47;5091217;28;20327;-68
2021/11/06 08:09:26;;;;;;;16.83;10.20;;;;;;;5.83;66.67;97940.13;5091291;28;20178;-68
2021/11/06 08:11:52;;;;;;;16.97;10.33;;;;;;;5.84;66.30;97940.94;5075063;28;20185;-68
2021/11/06 08:14:18;;;;;;;15.73;10.40;;;;;;;5.93;66.20;97942.09;5078603;28;20643;-66
2021/11/06 08:16:44;;;;;;;16.00;9.87;;;;;;;6.10;66.67;97946.16;5091833;28;20197;-68
2021/11/06 08:19:10;;;;;;;19.70;11.67;;;;;;;6.24;65.24;97943.44;5090866;28;20564;-68
2021/11/06 08:21:36;;;;;;;16.30;10.10;;;;;;;6.33;65.22;97939.38;5077915;28;20193;-68
2021/11/06 08:24:02;;;;;;;16.20;10.17;;;;;;;6.49;65.09;97941.72;5089467;28;20742;-68
2021/11/06 08:26:27;;;;;;;17.07;9.47;;;;;;;6.23;64.88;97930.53;5082528;28;20193;-68
2021/11/06 08:28:53;;;;;;;19.60;10.07;;;;;;;6.44;65.60;97931.63;5086401;28;20186;-68
2021/11/06 08:31:19;;;;;;;17.83;9.77;;;;;;;6.23;65.72;97935.75;5091111;28;20189;-68
2021/11/06 08:33:45;;;;;;;39.73;10.60;;;;;;;5.98;67.78;97938.22;5083436;28;20189;-69
2021/11/06 08:36:11;;;;;;;41.03;11.60;;;;;;;6.02;67.90;97938.06;5090360;28;20447;-68
2021/11/06 08:38:38;;;;;;;29.60;11.03;;;;;;;6.41;67.15;97946.66;5091504;28;20480;-67
2021/11/06 08:41:04;;;;;;;47.90;10.70;;;;;;;6.58;67.47;97942.84;5080736;28;20423;-68
2021/11/06 08:43:31;;;;;;;32.40;9.63;;;;;;;6.63;67.04;97952.94;5076797;28;20236;-67
2021/11/06 08:45:57;;;;;;;37.40;11.50;;;;;;;6.87;67.23;97951.19;5071603;28;20312;-67
2021/11/06 08:48:22;;;;;;;43.87;12.67;;;;;;;6.91;66.78;97957.00;5093928;28;20423;-68
2021/11/06 08:50:48;;;;;;;30.83;9.50;;;;;;;7.10;66.41;97956.50;5093794;28;20647;-67
2021/11/06 08:53:14;;;;;;;49.00;10.30;;;;;;;6.86;66.00;97957.31;5071556;28;20259;-67
2021/11/06 08:55:40;;;;;;;34.67;10.10;;;;;;;6.67;67.32;97962.19;5061057;28;20286;-68
2021/11/06 08:58:05;;;;;;;34.87;9.30;;;;;;;6.80;67.44;97963.00;5088582;28;20471;-69
2021/11/06 09:00:38;;;;;;;24.33;8.50;;;;;;;7.03;66.41;97960.50;5086689;28;20268;-69
2021/11/06 09:03:11;;;;;;;20.37;10.77;;;;;;;7.15;66.38;97969.19;5086032;28;20837;-68
2021/11/06 09:05:38;;;;;;;24.00;13.83;;;;;;;7.29;66.09;97970.81;5086589;28;20423;-69
2021/11/06 09:08:04;;;;;;;20.77;10.90;;;;;;;7.49;65.23;97962.31;5090922;28;20489;-68
2021/11/06 09:10:30;;;;;;;17.40;9.07;;;;;;;7.58;65.87;97954.75;5091190;28;20901;-68
2021/11/06 09:12:56;;;;;;;16.93;8.93;;;;;;;7.76;64.95;97952.53;5091322;28;20427;-68
2021/11/06 09:15:22;;;;;;;18.67;7.80;;;;;;;7.55;64.29;97960.22;5072855;28;20174;-68
2021/11/06 09:17:50;;;;;;;16.47;9.17;;;;;;;7.76;64.50;97953.38;5086090;28;20468;-66
2021/11/06 09:20:15;;;;;;;15.40;10.03;;;;;;;7.92;64.59;97955.63;5092021;28;20190;-68
2021/11/06 09:22:41;;;;;;;16.23;9.10;;;;;;;8.17;63.72;97963.38;5075850;28;20421;-68
2021/11/06 09:25:08;;;;;;;15.53;9.00;;;;;;;8.23;62.92;97955.91;5092774;28;20187;-68
2021/11/06 09:27:34;;;;;;;19.83;13.47;;;;;;;8.09;63.19;97956.94;5093587;28;20436;-68
2021/11/06 09:30:00;;;;;;;19.43;10.90;;;;;;;8.00;64.99;97953.25;5092512;28;20592;-70
2021/11/06 09:32:25;;;;;;;20.03;11.20;;;;;;;8.26;64.90;97949.59;5087643;28;20420;-67
2021/11/06 09:34:51;;;;;;;16.50;9.67;;;;;;;8.60;63.67;97953.06;5086811;28;20268;-68
2021/11/06 09:37:17;;;;;;;15.63;9.10;;;;;;;8.78;62.94;97951.72;5082982;28;20289;-67
2021/11/06 09:39:42;;;;;;;14.73;8.70;;;;;;;8.64;63.99;97947.56;5094408;28;20185;-68
2021/11/06 09:42:08;;;;;;;13.17;9.00;;;;;;;8.51;63.21;97958.16;5098840;28;20185;-68
2021/11/06 09:44:35;;;;;;;13.60;9.10;;;;;;;8.37;64.47;97948.78;5079490;28;20186;-68
2021/11/06 09:47:04;;;;;;;14.77;8.73;;;;;;;8.61;63.68;97953.88;5083501;28;20233;-70
2021/11/06 09:49:31;;;;;;;16.60;9.57;;;;;;;8.88;62.81;97950.81;5079531;28;20859;-70
2021/11/06 09:51:56;;;;;;;16.27;10.00;;;;;;;8.75;64.02;97944.94;5094276;28;20477;-68
2021/11/06 09:54:22;;;;;;;17.27;11.07;;;;;;;8.88;62.50;97947.41;5084652;28;20816;-69
2021/11/06 09:56:48;;;;;;;17.23;11.70;;;;;;;8.48;63.90;97948.78;5065449;28;20207;-68
2021/11/06 09:59:14;;;;;;;20.47;12.63;;;;;;;8.87;64.56;97953.56;5066395;28;20182;-68
2021/11/06 10:01:39;;;;;;;25.07;12.93;;;;;;;9.01;64.32;97945.44;5065576;28;20191;-69
2021/11/06 10:04:09;;;;;;;16.60;9.47;;;;;;;8.83;64.55;97949.53;5075106;28;20182;-69
2021/11/06 10:06:37;;;;;;;22.63;11.50;;;;;;;9.01;64.33;97945.44;5093821;28;20202;-70
2021/11/06 10:09:07;;;;;;;16.33;10.73;;;;;;;9.27;63.96;97950.34;5092084;28;20420;-69
2021/11/06 10:11:33;;;;;;;18.67;10.27;;;;;;;9.35;62.72;97950.53;5093857;28;20415;-68
2021/11/06 10:14:06;;;;;;;15.20;10.13;;;;;;;9.10;63.77;97948.25;5079119;28;20449;-68
2021/11/06 10:16:39;;;;;;;17.67;11.80;;;;;;;9.18;64.08;97945.88;5092738;28;20447;-68
2021/11/06 10:19:21;;;;;;;18.03;11.50;;;;;;;9.21;63.58;97942.97;5085250;28;20561;-69
2021/11/06 10:22:18;;;;;;;21.43;13.97;;;;;;;9.43;64.44;97949.91;5087556;28;21135;-69
2021/11/06 10:24:47;;;;;;;16.30;10.70;;;;;;;9.68;63.37;97940.84;5084434;28;20506;-69
2021/11/06 10:27:18;;;;;;;21.90;14.00;;;;;;;9.42;63.99;97943.00;5088586;28;20855;-69
2021/11/06 10:30:18;;;;;;;18.27;12.77;;;;;;;9.79;62.90;97944.34;5085345;28;20780;-68
2021/11/06 10:33:17;;;;;;;22.17;13.30;;;;;;;9.83;63.21;97945.75;5086920;28;20424;-68
2021/11/06 10:35:48;;;;;;;27.10;13.37;;;;;;;9.83;63.24;97943.13;5076747;28;20518;-68
2021/11/06 10:38:15;;;;;;;22.87;13.40;;;;;;;10.15;62.20;97939.56;5075648;28;20965;-68
2021/11/06 10:40:49;;;;;;;19.77;12.77;;;;;;;10.14;62.06;97932.66;5086662;28;20428;-68
2021/11/06 10:43:17;;;;;;;25.17;13.00;;;;;;;10.20;61.68;97926.91;5064267;28;20543;-69
2021/11/06 10:46:03;;;;;;;25.47;13.23;;;;;;;10.37;61.92;97919.38;5084354;28;20530;-68
2021/11/06 10:48:32;;;;;;;22.83;11.83;;;;;;;10.18;61.98;97912.28;5084174;28;20743;-68
2021/11/06 10:51:35;;;;;;;22.17;15.30;;;;;;;10.07;62.20;97910.59;5104346;28;20428;-70
2021/11/06 10:54:01;;;;;;;25.27;15.10;;;;;;;10.26;62.50;97910.66;5102981;28;20420;-68
2021/11/06 10:56:43;;;;;;;22.10;14.27;;;;;;;10.71;61.17;97919.91;5098028;28;20470;-70
2021/11/06 10:59:15;;;;;;;25.80;15.10;;;;;;;10.49;61.41;97915.69;5090811;28;20225;-68
2021/11/06 11:01:44;;;;;;;22.00;14.70;;;;;;;10.69;61.45;97913.94;5092700;28;20420;-68
2021/11/06 11:04:12;;;;;;;20.70;13.40;;;;;;;10.61;61.00;97913.81;5082959;28;20422;-70
2021/11/06 11:06:49;;;;;;;24.93;15.93;;;;;;;10.71;61.31;97903.34;5075853;28;20444;-69
2021/11/06 11:09:23;;;;;;;31.87;17.83;;;;;;;10.73;61.04;97907.47;5074922;28;20420;-68
2021/11/06 11:11:50;;;;;;;25.57;15.87;;;;;;;10.83;61.41;97902.25;5090606;28;20485;-67
2021/11/06 11:14:19;;;;;;;24.67;16.13;;;;;;;10.87;60.49;97898.38;5066617;28;20762;-68
2021/11/06 11:16:56;;;;;;;22.40;14.80;;;;;;;10.87;61.53;97898.38;5085496;28;20469;-68
2021/11/06 11:19:37;;;;;;;24.43;15.70;;;;;;;10.78;60.82;97898.34;5071749;28;20941;-69
2021/11/06 11:22:05;;;;;;;25.80;15.27;;;;;;;10.71;61.53;97883.19;5080141;28;20535;-70
2021/11/06 11:24:30;;;;;;;23.50;15.07;;;;;;;11.12;60.33;97890.91;5084923;28;20432;-69